Time;durP1;ratioP1;P1;durP2;ratioP2;P2;SDS_P1;SDS_P2;PMS_P1;PMS_P2;Temp;Humidity;BMP_temperature;BMP_pressure;BME280_temperature;BME280_humidity;BME280_pressure;Samples;Min_cycle;Max_cycle;Signal;HPM_P1;HPM_P2
2021/12/06 00:01:35;;;;;;;61.63;32.13;;;;;;;0.84;100.00;101160.88;5071978;28;20024;-85
2021/12/06 00:04:12;;;;;;;56.47;30.67;;;;;;;0.84;100.00;101166.00;5062895;28;20036;-85
2021/12/06 00:06:40;;;;;;;55.70;31.25;;;;;;;0.82;100.00;101173.69;5071838;28;20025;-85
2021/12/06 00:09:09;;;;;;;51.85;28.80;;;;;;;0.87;100.00;101172.06;5071725;28;20104;-85
2021/12/06 00:11:34;;;;;;;66.38;32.63;;;;;;;0.98;100.00;101169.75;5053508;28;20055;-85
2021/12/06 00:14:02;;;;;;;61.30;33.10;;;;;;;1.02;100.00;101170.69;5054335;28;20380;-84
2021/12/06 00:16:28;;;;;;;62.65;34.42;;;;;;;1.01;100.00;101176.63;5070976;28;20033;-85
2021/12/06 00:18:53;;;;;;;67.82;35.50;;;;;;;1.03;100.00;101174.97;5071244;28;20025;-84
2021/12/06 00:21:20;;;;;;;63.38;33.20;;;;;;;1.13;100.00;101182.03;5071344;28;20482;-85
2021/12/06 00:23:46;;;;;;;71.55;34.85;;;;;;;1.27;100.00;101177.16;5070284;28;20028;-85
2021/12/06 00:26:11;;;;;;;72.30;36.42;;;;;;;1.36;100.00;101190.19;5070517;28;20492;-85
2021/12/06 00:28:37;;;;;;;73.90;37.03;;;;;;;1.30;100.00;101183.22;5071002;28;20016;-85
2021/12/06 00:31:04;;;;;;;70.88;36.00;;;;;;;1.36;100.00;101190.19;5071387;28;20492;-85
2021/12/06 00:33:29;;;;;;;67.03;34.75;;;;;;;1.45;100.00;101189.50;5069579;28;20040;-85
2021/12/06 00:35:57;;;;;;;66.70;35.00;;;;;;;1.43;100.00;101186.88;5071753;28;20031;-85
2021/12/06 00:38:22;;;;;;;66.03;33.65;;;;;;;1.47;100.00;101193.84;5070989;28;20021;-85
2021/12/06 00:40:50;;;;;;;62.50;32.83;;;;;;;1.54;100.00;101200.84;5070567;28;20086;-85
2021/12/06 00:43:16;;;;;;;70.20;35.72;;;;;;;1.49;100.00;101205.00;5071036;28;20545;-85
2021/12/06 00:45:42;;;;;;;66.70;32.58;;;;;;;1.50;100.00;101200.72;5070713;28;20021;-85
2021/12/06 00:48:08;;;;;;;75.65;38.90;;;;;;;1.62;100.00;101217.25;5069955;28;20078;-85
2021/12/06 00:50:41;;;;;;;72.97;38.05;;;;;;;1.64;100.00;101223.28;5071152;28;20376;-85
2021/12/06 00:53:07;;;;;;;62.97;34.03;;;;;;;1.67;100.00;101229.31;5070757;28;20030;-85
2021/12/06 00:55:33;;;;;;;75.28;38.67;;;;;;;1.72;100.00;101227.72;5071227;28;20353;-85
2021/12/06 00:57:58;;;;;;;78.32;36.80;;;;;;;1.78;100.00;101230.41;5073596;28;20020;-85
2021/12/06 01:00:30;;;;;;;76.22;37.08;;;;;;;1.88;100.00;101235.72;5073956;28;20033;-85
2021/12/06 01:02:57;;;;;;;72.65;34.72;;;;;;;1.98;100.00;101239.34;5073836;28;20031;-85
2021/12/06 01:05:24;;;;;;;81.65;40.03;;;;;;;1.91;100.00;101247.78;5074860;28;20020;-85
2021/12/06 01:07:52;;;;;;;73.70;37.63;;;;;;;1.93;100.00;101251.25;5066629;28;20108;-85
2021/12/06 01:10:18;;;;;;;77.18;37.58;;;;;;;1.95;100.00;101251.28;5054334;28;20028;-85
2021/12/06 01:12:43;;;;;;;73.00;36.00;;;;;;;2.02;100.00;101253.97;5054438;28;20047;-85
2021/12/06 01:15:09;;;;;;;68.30;36.33;;;;;;;1.90;100.00;101245.16;5053602;28;20125;-85
2021/12/06 01:17:35;;;;;;;64.20;34.13;;;;;;;1.94;100.00;101250.41;5061725;28;20024;-85
2021/12/06 01:20:04;;;;;;;65.57;36.60;;;;;;;1.87;100.00;101241.72;5073948;28;20056;-85
2021/12/06 01:22:41;;;;;;;64.43;34.85;;;;;;;1.82;100.00;101250.19;5073687;28;20028;-85
2021/12/06 01:25:18;;;;;;;71.15;35.80;;;;;;;1.82;100.00;101250.19;5074236;28;20031;-85
2021/12/06 01:28:03;;;;;;;74.32;35.55;;;;;;;1.84;100.00;101267.38;5073511;28;20112;-85
2021/12/06 01:41:09;;;;;;;69.57;36.30;;;;;;;1.75;100.00;101268.91;5073409;28;20446;-85
2021/12/06 01:43:35;;;;;;;81.18;38.05;;;;;;;1.72;100.00;101268.84;5072710;28;20028;-85
2021/12/06 01:46:02;;;;;;;77.47;38.47;;;;;;;1.69;100.00;101272.19;5073919;28;20025;-85
2021/12/06 01:48:27;;;;;;;71.68;36.50;;;;;;;1.68;100.00;101273.06;5072784;28;20025;-85
2021/12/06 01:50:53;;;;;;;73.35;36.50;;;;;;;1.70;100.00;101280.78;5073087;28;20533;-85
2021/12/06 01:53:18;;;;;;;73.97;32.72;;;;;;;1.76;100.00;101266.34;5073782;28;20494;-85
2021/12/06 01:55:44;;;;;;;75.95;35.33;;;;;;;1.97;100.00;101270.19;5057858;28;20028;-85
2021/12/06 01:58:09;;;;;;;81.03;39.67;;;;;;;1.89;100.00;101272.59;5065922;28;20023;-85
2021/12/06 02:00:40;;;;;;;76.93;38.97;;;;;;;1.88;100.00;101288.84;5073318;28;20032;-85
2021/12/06 02:03:06;;;;;;;70.28;37.25;;;;;;;1.80;100.00;101286.16;5071591;28;20024;-85
2021/12/06 02:05:33;;;;;;;79.15;37.92;;;;;;;1.76;100.00;101289.47;5073435;28;20036;-85
2021/12/06 02:07:58;;;;;;;70.10;36.15;;;;;;;1.90;100.00;101284.63;5073261;28;20043;-85
2021/12/06 02:10:24;;;;;;;81.10;39.47;;;;;;;1.88;100.00;101283.72;5072520;28;20029;-85
2021/12/06 02:12:52;;;;;;;86.75;40.80;;;;;;;1.82;100.00;101283.59;5073231;28;20403;-86
2021/12/06 02:16:04;;;;;;;70.93;36.65;;;;;;;1.93;100.00;101284.69;5073084;28;20032;-85
2021/12/06 02:18:11;;;;;;;85.18;39.45;;;;;;;2.04;100.00;101292.59;5067263;28;20127;-85
2021/12/06 02:20:47;;;;;;;81.43;40.15;;;;;;;1.97;100.00;101294.19;5072699;28;20024;-85
2021/12/06 02:23:13;;;;;;;77.50;37.20;;;;;;;1.91;100.00;101299.22;5073250;28;20039;-85
2021/12/06 02:25:39;;;;;;;79.82;39.60;;;;;;;1.86;100.00;101298.22;5072157;28;20390;-85
2021/12/06 02:28:04;;;;;;;72.63;37.65;;;;;;;1.90;100.00;101299.16;5072321;28;20086;-85
2021/12/06 02:30:30;;;;;;;79.95;38.25;;;;;;;1.86;100.00;101298.22;5072559;28;20514;-85
2021/12/06 02:32:55;;;;;;;72.03;36.65;;;;;;;1.75;100.00;101289.47;5071567;28;20094;-85
2021/12/06 02:35:22;;;;;;;73.85;35.30;;;;;;;1.95;100.00;101311.28;5073069;28;20099;-85
2021/12/06 02:37:49;;;;;;;77.47;36.97;;;;;;;2.06;100.00;101303.75;5071797;28;20400;-85
2021/12/06 02:40:25;;;;;;;74.72;37.40;;;;;;;2.11;100.00;101310.72;5071748;28;20047;-85
2021/12/06 02:42:50;;;;;;;74.72;38.42;;;;;;;2.08;100.00;101310.66;5072444;28;20036;-85
2021/12/06 02:45:19;;;;;;;79.70;41.45;;;;;;;2.02;100.00;101320.84;5070421;28;20024;-85
2021/12/06 02:47:52;;;;;;;78.32;38.63;;;;;;;1.94;100.00;101322.41;5070597;28;20028;-85
2021/12/06 02:50:19;;;;;;;76.22;38.03;;;;;;;1.90;100.00;101328.34;5072624;28;20391;-85
2021/12/06 02:52:44;;;;;;;71.15;36.08;;;;;;;1.90;100.00;101330.91;5071500;28;20384;-85
2021/12/06 02:55:53;;;;;;;71.57;34.95;;;;;;;1.98;100.00;101329.34;5072472;28;20025;-85
2021/12/06 02:58:14;;;;;;;74.90;37.45;;;;;;;1.98;100.00;101329.34;5063914;28;20134;-85
2021/12/06 03:00:51;;;;;;;72.38;37.55;;;;;;;1.91;100.00;101329.19;5071268;28;20036;-85
2021/12/06 03:03:18;;;;;;;70.68;37.13;;;;;;;1.86;100.00;101329.09;5052887;28;20040;-85
2021/12/06 03:05:44;;;;;;;75.40;34.35;;;;;;;2.06;100.00;101337.19;5052622;28;20033;-85
2021/12/06 03:08:09;;;;;;;77.07;39.20;;;;;;;2.01;100.00;101326.81;5063798;28;20086;-85
2021/12/06 03:10:35;;;;;;;73.25;35.63;;;;;;;2.07;100.00;101334.66;5072231;28;20036;-86
2021/12/06 03:13:00;;;;;;;74.88;36.15;;;;;;;2.00;100.00;101325.09;5070738;28;20115;-85
2021/12/06 03:15:26;;;;;;;73.57;36.42;;;;;;;2.03;100.00;101338.03;5071223;28;20021;-85
2021/12/06 03:17:51;;;;;;;72.80;36.75;;;;;;;2.00;100.00;101335.38;5065783;28;20029;-85
2021/12/06 03:20:17;;;;;;;78.25;37.35;;;;;;;1.93;100.00;101343.81;5071063;28;20029;-85
2021/12/06 03:22:44;;;;;;;75.32;38.17;;;;;;;1.95;100.00;101338.69;5072313;28;20067;-85
2021/12/06 03:25:11;;;;;;;69.38;35.30;;;;;;;1.93;100.00;101341.25;5071499;28;20103;-85
2021/12/06 03:27:37;;;;;;;78.80;36.78;;;;;;;1.90;100.00;101338.63;5070718;28;20900;-85
2021/12/06 03:30:05;;;;;;;76.47;37.28;;;;;;;1.95;100.00;101342.13;5072278;28;20028;-85
2021/12/06 03:32:30;;;;;;;82.45;39.70;;;;;;;1.96;100.00;101333.59;5071699;28;20098;-85
2021/12/06 03:34:55;;;;;;;80.40;38.53;;;;;;;1.96;100.00;101333.59;5071144;28;20476;-85
2021/12/06 03:37:21;;;;;;;70.25;36.47;;;;;;;1.93;100.00;101333.53;5071408;28;20029;-85
2021/12/06 03:39:48;;;;;;;78.93;38.67;;;;;;;1.82;100.00;101335.00;5071288;28;20039;-85
2021/12/06 03:42:17;;;;;;;70.80;37.05;;;;;;;1.81;100.00;101346.16;5070927;28;20028;-85
2021/12/06 03:44:43;;;;;;;76.22;37.90;;;;;;;1.71;100.00;101331.38;5072563;28;20653;-85
2021/12/06 03:47:14;;;;;;;80.68;39.92;;;;;;;1.71;100.00;101337.38;5069739;28;20051;-85
2021/12/06 03:49:42;;;;;;;79.18;36.90;;;;;;;1.79;100.00;101350.38;5068710;28;20135;-85
2021/12/06 03:52:08;;;;;;;86.72;40.13;;;;;;;1.84;100.00;101352.22;5071142;28;20028;-85
2021/12/06 03:54:33;;;;;;;89.97;40.13;;;;;;;1.81;100.00;101341.88;5071516;28;20499;-85
2021/12/06 03:57:00;;;;;;;85.95;38.50;;;;;;;1.78;100.00;101343.50;5071378;28;20032;-85
2021/12/06 03:59:25;;;;;;;81.15;39.55;;;;;;;1.70;100.00;101329.63;5071765;28;20029;-85
2021/12/06 04:01:51;;;;;;;77.28;35.40;;;;;;;1.81;100.00;101343.56;5071849;28;20384;-85
2021/12/06 04:04:17;;;;;;;83.88;38.13;;;;;;;1.74;100.00;101350.28;5071177;28;20103;-85
2021/12/06 04:06:43;;;;;;;79.07;38.13;;;;;;;1.71;100.00;101351.94;5071069;28;20449;-85
2021/12/06 04:09:10;;;;;;;85.90;37.40;;;;;;;1.77;100.00;101346.94;5071738;28;20036;-85
2021/12/06 04:11:36;;;;;;;81.05;36.78;;;;;;;1.91;100.00;101358.34;5070356;28;20036;-85
2021/12/06 04:14:03;;;;;;;90.72;41.22;;;;;;;1.92;100.00;101359.22;5071769;28;20476;-85
2021/12/06 04:16:29;;;;;;;88.53;41.25;;;;;;;1.83;100.00;101358.19;5071276;28;20437;-85
2021/12/06 04:18:54;;;;;;;88.78;41.03;;;;;;;1.77;100.00;101360.63;5071092;28;20033;-85
2021/12/06 04:21:21;;;;;;;78.78;35.58;;;;;;;1.73;100.00;101357.97;5057107;28;20020;-85
2021/12/06 04:23:46;;;;;;;80.85;36.65;;;;;;;1.66;100.00;101349.25;5070988;28;20189;-85
2021/12/06 04:26:12;;;;;;;76.63;37.28;;;;;;;1.60;100.00;101359.41;5071363;28;20536;-85
2021/12/06 04:28:43;;;;;;;75.97;37.78;;;;;;;1.53;100.00;101360.97;5069969;28;20028;-85
2021/12/06 04:31:08;;;;;;;74.60;35.63;;;;;;;1.48;100.00;101359.16;5071024;28;20423;-85
2021/12/06 04:33:33;;;;;;;75.18;34.83;;;;;;;1.51;100.00;101361.78;5074419;28;20032;-85
2021/12/06 04:35:59;;;;;;;79.05;38.55;;;;;;;1.47;100.00;101366.00;5075735;28;20025;-85
2021/12/06 04:38:24;;;;;;;74.05;37.47;;;;;;;1.28;100.00;101348.44;5074233;28;20028;-85
2021/12/06 04:40:50;;;;;;;75.97;37.13;;;;;;;1.21;100.00;101367.97;5075094;28;20024;-85
2021/12/06 04:43:15;;;;;;;65.63;32.97;;;;;;;1.12;100.00;101373.75;5073839;28;20380;-85
2021/12/06 04:45:41;;;;;;;65.53;33.67;;;;;;;1.08;100.00;101369.38;5074037;28;20025;-85
2021/12/06 04:48:08;;;;;;;70.72;32.17;;;;;;;1.12;100.00;101375.47;5074946;28;20116;-85
2021/12/06 04:50:36;;;;;;;80.63;37.83;;;;;;;1.11;100.00;101372.03;5074913;28;20031;-85
2021/12/06 04:53:09;;;;;;;69.40;35.92;;;;;;;1.02;100.00;101382.09;5073791;28;20056;-85
2021/12/06 04:55:42;;;;;;;74.25;35.00;;;;;;;0.91;100.00;101381.78;5073760;28;20384;-85
2021/12/06 04:58:08;;;;;;;;;;;;;;;0.87;100.00;101394.53;5074931;28;20028;-85
2021/12/06 05:00:39;;;;;;;61.03;31.60;;;;;;;0.87;100.00;101384.25;5074191;28;19959;-85
2021/12/06 05:03:07;;;;;;;63.42;32.05;;;;;;;0.71;100.00;101390.69;5073744;28;20074;-85
2021/12/06 05:05:41;;;;;;;62.20;33.95;;;;;;;0.57;100.00;101392.91;5073699;28;20521;-85
2021/12/06 05:08:12;;;;;;;65.05;32.92;;;;;;;0.50;100.00;101396.16;5073729;28;20029;-85
2021/12/06 05:10:38;;;;;;;71.63;35.45;;;;;;;0.55;100.00;101397.13;5074332;28;20048;-85
2021/12/06 05:13:03;;;;;;;67.40;33.58;;;;;;;0.44;100.00;101388.31;5073234;28;20051;-85
2021/12/06 05:15:28;;;;;;;69.95;35.25;;;;;;;0.38;100.00;101395.81;5074606;28;20020;-85
2021/12/06 05:17:54;;;;;;;70.03;34.42;;;;;;;0.31;100.00;101405.06;5074561;28;20063;-85
2021/12/06 05:20:19;;;;;;;69.78;35.28;;;;;;;0.21;100.00;101406.50;5072796;28;20095;-85
2021/12/06 05:22:46;;;;;;;62.63;31.23;;;;;;;-0.05;100.00;101375.00;5073786;28;20025;-85
2021/12/06 05:25:13;;;;;;;65.00;31.42;;;;;;;0.06;100.00;101408.63;5073209;28;20028;-86
2021/12/06 05:27:39;;;;;;;70.68;34.40;;;;;;;0.03;100.00;101416.22;5073291;28;20033;-85
2021/12/06 05:30:08;;;;;;;68.30;34.45;;;;;;;-0.03;100.00;101403.25;5074066;28;20112;-85
2021/12/06 05:32:35;;;;;;;78.35;34.47;;;;;;;0.03;100.00;101417.91;5073832;28;20028;-85
2021/12/06 05:35:06;;;;;;;110.90;37.10;;;;;;;0.14;100.00;101412.28;5073477;28;20033;-85
2021/12/06 05:37:34;;;;;;;106.20;37.22;;;;;;;0.35;100.00;101408.56;5074186;28;20020;-85
2021/12/06 05:39:59;;;;;;;126.47;39.67;;;;;;;0.39;100.00;101408.72;5073266;28;20035;-85
2021/12/06 05:42:26;;;;;;;155.27;39.42;;;;;;;0.46;100.00;101414.88;5071587;28;20408;-85
2021/12/06 05:44:52;;;;;;;146.80;37.70;;;;;;;0.45;100.00;101405.41;5073910;28;20025;-85
2021/12/06 05:47:18;;;;;;;162.98;37.88;;;;;;;0.52;100.00;101407.31;5073878;28;20434;-85
2021/12/06 05:49:43;;;;;;;127.45;36.92;;;;;;;0.74;100.00;101407.88;5072835;28;20028;-85
2021/12/06 05:52:09;;;;;;;165.65;39.63;;;;;;;0.88;100.00;101403.97;5072940;28;20024;-85
2021/12/06 05:54:34;;;;;;;171.80;41.88;;;;;;;0.87;100.00;101413.38;5063641;28;20040;-85
2021/12/06 05:57:00;;;;;;;134.68;38.03;;;;;;;0.85;100.00;101399.63;5067883;28;20469;-85
2021/12/06 05:59:26;;;;;;;279.83;44.42;;;;;;;0.86;100.00;101408.22;5073667;28;20064;-85
2021/12/06 06:01:53;;;;;;;251.43;45.30;;;;;;;0.93;100.00;101418.66;5073358;28;20097;-85
2021/12/06 06:04:20;;;;;;;308.13;45.55;;;;;;;0.89;100.00;101419.41;5072586;28;20035;-85
2021/12/06 06:06:45;;;;;;;191.32;41.30;;;;;;;0.89;100.00;101418.56;5073536;28;20147;-85
2021/12/06 06:09:11;;;;;;;239.00;42.03;;;;;;;0.89;100.00;101424.56;5071534;28;20458;-85
2021/12/06 06:11:36;;;;;;;249.52;41.72;;;;;;;0.85;100.00;101425.31;5072935;28;20049;-85
2021/12/06 06:14:04;;;;;;;314.88;45.17;;;;;;;0.84;100.00;101435.53;5073011;28;20043;-85
2021/12/06 06:16:32;;;;;;;132.88;37.75;;;;;;;0.97;100.00;101442.72;5072634;28;20060;-86
2021/12/06 06:18:59;;;;;;;171.90;40.65;;;;;;;1.07;100.00;101446.38;5073335;28;20100;-85
2021/12/06 06:21:24;;;;;;;151.30;39.97;;;;;;;1.02;100.00;101446.28;5073186;28;20025;-85
2021/12/06 06:23:50;;;;;;;168.50;40.85;;;;;;;1.00;100.00;101453.06;5064271;28;20021;-85
2021/12/06 06:26:15;;;;;;;146.60;38.03;;;;;;;1.11;100.00;101449.06;5056635;28;20427;-85
2021/12/06 06:28:41;;;;;;;120.47;38.83;;;;;;;1.19;100.00;101448.38;5072533;28;20090;-85
2021/12/06 06:31:06;;;;;;;170.32;41.97;;;;;;;1.19;100.00;101454.38;5071885;28;20028;-86
2021/12/06 06:33:31;;;;;;;213.98;44.05;;;;;;;1.12;100.00;101450.81;5072017;28;20452;-86
2021/12/06 06:35:57;;;;;;;207.52;42.03;;;;;;;1.14;100.00;101445.69;5073011;28;20029;-85
2021/12/06 06:38:23;;;;;;;146.57;41.42;;;;;;;1.24;100.00;101442.50;5071608;28;20031;-85
2021/12/06 06:40:48;;;;;;;156.45;43.30;;;;;;;1.20;100.00;101437.28;5071795;28;20370;-85
2021/12/06 06:43:14;;;;;;;158.57;42.13;;;;;;;1.26;100.00;101443.44;5071781;28;20076;-85
2021/12/06 06:45:39;;;;;;;137.95;42.33;;;;;;;1.27;100.00;101446.84;5071910;28;20033;-85
2021/12/06 06:48:05;;;;;;;150.95;42.65;;;;;;;1.26;100.00;101450.28;5072414;28;20016;-85
2021/12/06 06:50:31;;;;;;;132.18;40.90;;;;;;;1.34;100.00;101456.44;5072519;28;20031;-85
2021/12/06 06:52:56;;;;;;;284.10;48.05;;;;;;;1.33;100.00;101445.31;5071795;28;20028;-85
2021/12/06 06:55:23;;;;;;;160.32;43.15;;;;;;;1.40;100.00;101443.75;5069861;28;20033;-85
2021/12/06 06:57:50;;;;;;;171.60;44.35;;;;;;;1.45;100.00;101449.00;5071645;28;20078;-85
2021/12/06 07:00:22;;;;;;;289.00;49.25;;;;;;;1.42;100.00;101451.50;5071384;28;20103;-85
2021/12/06 07:02:47;;;;;;;235.77;47.13;;;;;;;1.39;100.00;101455.72;5072397;28;20035;-85
2021/12/06 07:05:14;;;;;;;211.43;45.15;;;;;;;1.31;100.00;101447.00;5071969;28;20029;-84
2021/12/06 07:07:39;;;;;;;133.07;42.90;;;;;;;1.34;100.00;101452.19;5071699;28;20036;-85
2021/12/06 07:10:06;;;;;;;179.50;43.88;;;;;;;1.33;100.00;101452.16;5071386;28;20027;-85
2021/12/06 07:12:34;;;;;;;141.75;42.72;;;;;;;1.23;100.00;101445.91;5070465;28;20043;-85
2021/12/06 07:15:00;;;;;;;193.02;44.67;;;;;;;1.25;100.00;101451.13;5071962;28;20512;-85
2021/12/06 07:17:25;;;;;;;169.30;42.72;;;;;;;1.30;100.00;101454.63;5071892;28;20029;-85
2021/12/06 07:19:51;;;;;;;164.20;44.05;;;;;;;1.31;100.00;101459.84;5071197;28;20060;-85
2021/12/06 07:22:16;;;;;;;151.98;44.35;;;;;;;1.32;100.00;101463.25;5072152;28;20056;-85
2021/12/06 07:24:41;;;;;;;118.53;42.03;;;;;;;1.44;100.00;101466.13;5071956;28;20025;-85
2021/12/06 07:27:07;;;;;;;113.63;40.80;;;;;;;1.51;100.00;101469.72;5070274;28;20024;-85
2021/12/06 07:29:35;;;;;;;126.95;43.92;;;;;;;1.64;100.00;101469.16;5072045;28;20024;-85
2021/12/06 07:32:04;;;;;;;104.97;42.45;;;;;;;1.74;100.00;101473.69;5071364;28;20468;-84
2021/12/06 07:34:29;;;;;;;127.22;47.70;;;;;;;1.68;100.00;101473.53;5058146;28;20546;-85
2021/12/06 07:36:54;;;;;;;131.50;46.28;;;;;;;1.64;100.00;101482.88;5065714;28;20032;-85
2021/12/06 07:39:19;;;;;;;99.30;43.15;;;;;;;1.68;100.00;101486.38;5071551;28;20115;-84
2021/12/06 07:41:45;;;;;;;96.05;43.50;;;;;;;1.80;100.00;101490.97;5069148;28;20025;-84
2021/12/06 07:44:10;;;;;;;105.50;46.10;;;;;;;1.73;100.00;101477.06;5069838;28;20032;-84
2021/12/06 07:46:36;;;;;;;116.15;47.17;;;;;;;1.63;100.00;101470.88;5063519;28;20028;-84
2021/12/06 07:49:04;;;;;;;99.13;43.50;;;;;;;1.53;100.00;101463.75;5070436;28;20233;-85
2021/12/06 07:51:30;;;;;;;92.30;40.30;;;;;;;1.67;100.00;101474.38;5070655;28;20033;-85
2021/12/06 07:53:57;;;;;;;106.93;44.75;;;;;;;1.68;100.00;101470.09;5060888;28;20051;-84
2021/12/06 07:56:22;;;;;;;108.97;45.38;;;;;;;1.71;100.00;101457.31;5069995;28;20035;-84
2021/12/06 07:58:48;;;;;;;147.23;49.97;;;;;;;1.74;100.00;101458.25;5071104;28;20028;-84
2021/12/06 08:01:14;;;;;;;143.20;52.55;;;;;;;1.83;100.00;101458.47;5071451;28;20029;-84
2021/12/06 08:03:41;;;;;;;181.07;56.35;;;;;;;1.81;100.00;101454.13;5070531;28;20028;-84
2021/12/06 08:06:08;;;;;;;154.85;52.95;;;;;;;1.74;100.00;101444.53;5073191;28;20024;-84
2021/12/06 08:08:38;;;;;;;140.98;50.75;;;;;;;1.71;100.00;101444.47;5073640;28;20032;-85
2021/12/06 08:11:09;;;;;;;169.23;55.28;;;;;;;1.71;100.00;101454.75;5074694;28;20051;-83
2021/12/06 08:13:35;;;;;;;184.77;52.65;;;;;;;1.67;100.00;101455.50;5070405;28;20029;-85
2021/12/06 08:16:07;;;;;;;180.75;55.92;;;;;;;1.66;100.00;101454.63;5073947;28;20908;-85
2021/12/06 08:18:33;;;;;;;145.27;51.03;;;;;;;1.61;100.00;101457.09;5074188;28;20027;-85
2021/12/06 08:21:00;;;;;;;146.20;52.45;;;;;;;1.59;100.00;101453.63;5057346;28;20412;-86
2021/12/06 08:23:26;;;;;;;159.00;54.53;;;;;;;1.62;100.00;101453.69;5083970;28;20032;-86
2021/12/06 08:25:51;;;;;;;158.07;54.70;;;;;;;1.61;100.00;101451.97;5083865;28;20086;-85
2021/12/06 08:28:17;;;;;;;154.50;54.50;;;;;;;1.66;100.00;101454.63;5077817;28;20067;-85
2021/12/06 08:30:44;;;;;;;163.07;55.83;;;;;;;1.70;100.00;101447.84;5074230;28;20073;-85
2021/12/06 08:33:12;;;;;;;160.43;53.70;;;;;;;1.68;100.00;101452.13;5071957;28;20028;-86
2021/12/06 08:35:40;;;;;;;152.02;52.50;;;;;;;1.69;100.00;101464.13;5070295;28;20499;-84
2021/12/06 08:38:06;;;;;;;146.63;51.85;;;;;;;1.70;100.00;101469.31;5068898;28;20032;-83
2021/12/06 08:40:33;;;;;;;146.73;51.75;;;;;;;1.67;100.00;101481.19;5068498;28;20024;-84
2021/12/06 08:42:58;;;;;;;143.57;50.85;;;;;;;1.64;100.00;101484.59;5072772;28;20116;-84
2021/12/06 08:45:28;;;;;;;149.45;50.50;;;;;;;1.64;100.00;101493.16;5071996;28;20142;-84
2021/12/06 08:47:54;;;;;;;181.80;51.10;;;;;;;1.61;100.00;101493.09;5075366;28;20397;-84
2021/12/06 08:50:22;;;;;;;152.50;49.22;;;;;;;1.61;100.00;101494.78;5072748;28;20503;-84
2021/12/06 08:52:49;;;;;;;172.65;51.08;;;;;;;1.64;100.00;101490.59;5069818;28;20472;-84
2021/12/06 08:55:15;;;;;;;146.48;50.60;;;;;;;1.63;100.00;101495.69;5073085;28;20376;-84
2021/12/06 08:57:40;;;;;;;161.95;51.35;;;;;;;1.67;100.00;101488.91;5054905;28;20036;-84
2021/12/06 09:00:10;;;;;;;167.13;52.40;;;;;;;1.74;100.00;101503.66;5059776;28;20021;-85
2021/12/06 09:02:38;;;;;;;166.05;53.83;;;;;;;1.78;100.00;101497.75;5061678;28;20032;-83
2021/12/06 09:05:04;;;;;;;180.43;54.20;;;;;;;1.78;100.00;101492.63;5068999;28;20354;-83
2021/12/06 09:07:29;;;;;;;173.63;54.60;;;;;;;1.80;100.00;101501.25;5074015;28;20071;-83
2021/12/06 09:09:56;;;;;;;162.30;52.70;;;;;;;1.83;100.00;101504.75;5073712;28;20091;-82
2021/12/06 09:12:25;;;;;;;172.43;51.47;;;;;;;1.82;100.00;101508.13;5073072;28;20036;-82
2021/12/06 09:14:52;;;;;;;172.60;51.28;;;;;;;1.82;100.00;101508.13;5059921;28;20029;-82
2021/12/06 09:17:17;;;;;;;163.50;52.38;;;;;;;1.83;100.00;101501.28;5059473;28;20025;-83
2021/12/06 09:19:43;;;;;;;163.90;50.50;;;;;;;1.87;100.00;101510.81;5070679;28;20034;-83
2021/12/06 09:22:09;;;;;;;145.88;49.28;;;;;;;1.88;100.00;101507.41;5072589;28;20024;-83
2021/12/06 09:24:35;;;;;;;151.05;47.55;;;;;;;1.84;100.00;101503.03;5072184;28;20098;-83
2021/12/06 09:27:02;;;;;;;143.93;48.45;;;;;;;1.85;100.00;101504.78;5070611;28;20029;-82
2021/12/06 09:29:27;;;;;;;137.77;46.10;;;;;;;1.85;100.00;101507.34;5069392;28;20472;-83
2021/12/06 09:31:55;;;;;;;141.73;46.13;;;;;;;1.88;100.00;101517.69;5065673;28;20029;-81
2021/12/06 09:34:20;;;;;;;137.90;43.75;;;;;;;1.83;100.00;101509.00;5069000;28;20025;-82
2021/12/06 09:36:47;;;;;;;139.80;45.13;;;;;;;1.88;100.00;101508.28;5066008;28;20029;-82
2021/12/06 09:39:13;;;;;;;156.73;46.90;;;;;;;1.84;100.00;101510.75;5065141;28;20071;-82
2021/12/06 09:41:39;;;;;;;159.50;44.75;;;;;;;1.87;100.00;101505.69;5067329;28;20033;-82
2021/12/06 09:44:06;;;;;;;178.35;47.78;;;;;;;1.87;100.00;101510.81;5065323;28;20381;-82
2021/12/06 09:46:35;;;;;;;172.82;45.70;;;;;;;1.82;100.00;101502.13;5071270;28;20457;-82
2021/12/06 09:49:03;;;;;;;213.15;47.28;;;;;;;1.84;100.00;101510.75;5068314;28;20020;-82
2021/12/06 09:51:29;;;;;;;223.70;49.28;;;;;;;1.87;100.00;101518.53;5072578;28;20082;-82
2021/12/06 09:53:56;;;;;;;204.60;48.97;;;;;;;1.85;100.00;101507.34;5072502;28;20032;-82
2021/12/06 09:56:29;;;;;;;198.80;46.53;;;;;;;1.90;100.00;101516.03;5071421;28;20480;-82
2021/12/06 09:58:57;;;;;;;203.82;45.95;;;;;;;1.93;100.00;101510.06;5069714;28;20032;-82
2021/12/06 10:01:30;;;;;;;191.77;44.78;;;;;;;1.93;100.00;101510.06;5070899;28;20094;-82
2021/12/06 10:03:58;;;;;;;189.25;44.63;;;;;;;1.96;100.00;101515.28;5071660;28;20074;-82
2021/12/06 10:06:26;;;;;;;200.77;46.28;;;;;;;2.00;100.00;101509.41;5072528;28;20100;-82
2021/12/06 10:08:53;;;;;;;188.25;44.10;;;;;;;1.99;100.00;101495.66;5062945;28;20119;-82
2021/12/06 10:11:20;;;;;;;176.98;43.13;;;;;;;1.95;100.00;101493.84;5065673;28;20047;-82
2021/12/06 10:13:47;;;;;;;157.65;37.83;;;;;;;1.97;100.00;101494.75;5065052;28;20040;-82
2021/12/06 10:16:13;;;;;;;159.93;38.95;;;;;;;1.97;100.00;101491.34;5063911;28;20424;-82
2021/12/06 10:18:39;;;;;;;149.40;39.28;;;;;;;2.02;100.00;101479.41;5053001;28;20082;-82
2021/12/06 10:21:05;;;;;;;150.55;41.25;;;;;;;2.05;100.00;101477.78;5065267;28;20028;-82
2021/12/06 10:23:32;;;;;;;135.43;37.33;;;;;;;2.04;100.00;101476.06;5072509;28;20099;-83
2021/12/06 10:25:57;;;;;;;119.47;37.35;;;;;;;2.03;100.00;101471.75;5070026;28;20025;-82
2021/12/06 10:28:28;;;;;;;130.00;36.90;;;;;;;2.09;100.00;101463.28;5068820;28;20035;-82
2021/12/06 10:30:58;;;;;;;122.07;38.03;;;;;;;2.08;100.00;101462.41;5071029;28;20048;-82
2021/12/06 10:33:27;;;;;;;105.63;33.15;;;;;;;2.07;100.00;101459.81;5070980;28;20040;-82
2021/12/06 10:35:56;;;;;;;98.30;33.75;;;;;;;2.05;100.00;101469.19;5071455;28;20030;-82
2021/12/06 10:38:28;;;;;;;92.03;31.98;;;;;;;2.02;100.00;101474.28;5067338;28;20025;-82
2021/12/06 10:41:06;;;;;;;95.95;32.75;;;;;;;2.01;100.00;101469.97;5069934;28;20030;-82
2021/12/06 10:43:33;;;;;;;99.47;32.83;;;;;;;1.98;100.00;101467.34;5070705;28;20411;-82
2021/12/06 10:45:59;;;;;;;92.53;32.58;;;;;;;1.97;100.00;101463.91;5071440;28;20117;-82
2021/12/06 10:48:30;;;;;;;87.75;32.50;;;;;;;1.92;100.00;101462.94;5068217;28;20056;-82
2021/12/06 10:51:06;;;;;;;81.63;30.60;;;;;;;1.88;100.00;101450.84;5055420;28;20163;-82
2021/12/06 10:53:41;;;;;;;91.45;33.38;;;;;;;1.84;100.00;101438.75;5055443;28;20073;-83
2021/12/06 10:56:18;;;;;;;88.35;31.10;;;;;;;1.85;100.00;101430.19;5067018;28;20028;-82
2021/12/06 10:58:44;;;;;;;85.55;29.73;;;;;;;1.89;100.00;101419.13;5071734;28;20079;-82
2021/12/06 11:01:13;;;;;;;85.60;31.10;;;;;;;1.86;100.00;101409.69;5071229;28;20087;-82
2021/12/06 11:03:45;;;;;;;69.18;27.13;;;;;;;1.93;100.00;101405.53;5058222;28;20039;-82
2021/12/06 11:06:19;;;;;;;63.85;24.50;;;;;;;1.89;100.00;101406.28;5064322;28;20020;-82
2021/12/06 11:08:46;;;;;;;50.45;21.55;;;;;;;1.88;100.00;101418.28;5061925;28;20028;-82
2021/12/06 11:11:20;;;;;;;48.67;20.17;;;;;;;1.80;100.00;101412.13;5063311;28;20376;-82
2021/12/06 11:13:51;;;;;;;46.22;18.70;;;;;;;1.72;100.00;101410.22;5070915;28;20028;-82
2021/12/06 11:16:19;;;;;;;57.58;21.27;;;;;;;1.64;100.00;101412.63;5065234;28;20479;-82
2021/12/06 11:18:48;;;;;;;55.72;21.35;;;;;;;1.62;100.00;101406.56;5068763;28;20384;-82